Time;durP1;ratioP1;P1;durP2;ratioP2;P2;SDS_P1;SDS_P2;PMS_P1;PMS_P2;Temp;Humidity;BMP_temperature;BMP_pressure;BME280_temperature;BME280_humidity;BME280_pressure;Samples;Min_cycle;Max_cycle;Signal;HPM_P1;HPM_P2
2023/09/13 00:01:10;;;;;;;19.67;11.18;;;19.20;72.90;;;;;;4845974;29;20049;-91
2023/09/13 00:03:37;;;;;;;18.75;10.88;;;19.20;73.00;;;;;;4846283;29;20106;-92
2023/09/13 00:06:04;;;;;;;20.02;11.52;;;19.20;73.00;;;;;;4845926;29;20531;-93
2023/09/13 00:08:32;;;;;;;18.00;10.93;;;19.10;73.30;;;;;;4860559;29;20634;-91
2023/09/13 00:11:05;;;;;;;21.63;11.02;;;19.20;73.10;;;;;;4845814;29;20046;-93
2023/09/13 00:13:33;;;;;;;18.83;11.05;;;19.20;73.20;;;;;;4861083;29;20050;-91
2023/09/13 00:16:00;;;;;;;23.25;11.73;;;19.10;73.30;;;;;;4861120;29;20050;-91
2023/09/13 00:18:28;;;;;;;19.02;11.00;;;19.10;73.20;;;;;;4861237;29;20500;-92
2023/09/13 00:20:55;;;;;;;19.33;10.63;;;19.10;73.20;;;;;;4861189;29;20054;-91
2023/09/13 00:23:22;;;;;;;22.50;11.18;;;19.10;73.40;;;;;;4845940;29;20111;-92
2023/09/13 00:25:49;;;;;;;23.27;10.73;;;19.10;73.40;;;;;;4845591;29;20075;-90
2023/09/13 00:28:16;;;;;;;17.80;10.82;;;19.10;73.40;;;;;;4860923;29;20057;-91
2023/09/13 00:30:43;;;;;;;17.10;10.63;;;19.10;73.40;;;;;;4845660;29;20045;-92
2023/09/13 00:33:11;;;;;;;22.63;11.80;;;19.10;73.50;;;;;;4861101;29;20052;-92
2023/09/13 00:35:38;;;;;;;19.95;10.90;;;19.00;73.70;;;;;;4845503;29;20148;-93
2023/09/13 00:38:06;;;;;;;19.67;10.60;;;19.00;73.80;;;;;;4861086;29;20057;-92
2023/09/13 00:40:34;;;;;;;27.45;11.18;;;19.00;73.80;;;;;;4845696;29;20050;-93
2023/09/13 00:43:01;;;;;;;19.15;10.75;;;19.00;73.60;;;;;;4860684;29;20522;-91
2023/09/13 00:45:32;;;;;;;17.40;10.53;;;18.90;73.80;;;;;;4860995;29;20114;-91
2023/09/13 00:47:59;;;;;;;18.85;9.95;;;18.90;73.90;;;;;;4861053;29;20147;-92
2023/09/13 00:50:28;;;;;;;18.65;10.82;;;18.90;73.70;;;;;;4845609;29;20152;-91
2023/09/13 00:53:07;;;;;;;17.60;10.93;;;18.90;73.70;;;;;;4860840;29;20056;-91
2023/09/13 00:55:36;;;;;;;20.50;10.65;;;18.90;73.80;;;;;;4845132;29;20054;-93
2023/09/13 00:58:05;;;;;;;20.83;10.70;;;19.00;73.60;;;;;;4860507;29;20061;-92
2023/09/13 01:00:33;;;;;;;18.10;10.30;;;19.00;73.40;;;;;;4845400;29;20049;-92
2023/09/13 01:03:03;;;;;;;19.10;10.88;;;19.00;73.40;;;;;;4860816;29;20449;-92
2023/09/13 01:05:31;;;;;;;16.75;9.98;;;19.00;73.50;;;;;;4845137;29;20117;-92
2023/09/13 01:07:58;;;;;;;19.08;10.15;;;18.90;73.50;;;;;;4860665;29;20092;-91
2023/09/13 01:10:25;;;;;;;21.13;10.87;;;18.90;73.50;;;;;;4845272;29;20144;-92
2023/09/13 01:12:52;;;;;;;16.75;9.32;;;18.90;73.30;;;;;;4860331;29;20165;-92
2023/09/13 01:15:20;;;;;;;19.63;10.68;;;18.90;73.20;;;;;;4845259;29;20504;-93
2023/09/13 01:18:01;;;;;;;22.67;9.63;;;19.00;73.30;;;;;;4860350;29;20057;-92
2023/09/13 01:20:43;;;;;;;18.83;9.63;;;18.90;72.90;;;;;;4862629;29;20419;-92
2023/09/13 01:23:34;;;;;;;20.57;10.67;;;19.00;72.90;;;;;;4863943;29;20061;-91
2023/09/13 01:26:31;;;;;;;15.43;9.65;;;19.00;73.00;;;;;;4863829;29;20045;-92
2023/09/13 01:28:59;;;;;;;21.05;10.05;;;19.00;73.00;;;;;;4863744;29;20076;-91
2023/09/13 01:31:27;;;;;;;20.02;10.48;;;18.90;72.80;;;;;;4848592;29;20046;-91
2023/09/13 01:33:55;;;;;;;17.42;10.38;;;18.90;73.00;;;;;;4863705;29;20054;-92
2023/09/13 01:36:24;;;;;;;15.93;10.20;;;18.90;73.10;;;;;;4848284;29;20144;-92
2023/09/13 01:38:52;;;;;;;20.75;10.35;;;18.90;73.10;;;;;;4863745;29;20144;-92
2023/09/13 01:41:19;;;;;;;17.60;9.63;;;18.90;73.20;;;;;;4848177;29;20046;-92
2023/09/13 01:43:50;;;;;;;16.73;9.95;;;18.80;73.20;;;;;;4863596;29;20075;-92
2023/09/13 01:46:17;;;;;;;16.15;10.10;;;18.70;73.30;;;;;;4863594;29;20527;-92
2023/09/13 01:48:45;;;;;;;23.00;11.10;;;18.70;73.30;;;;;;4848279;29;20060;-93
2023/09/13 01:51:13;;;;;;;17.73;9.80;;;18.80;73.50;;;;;;4863482;29;20053;-92
2023/09/13 01:53:44;;;;;;;17.83;10.18;;;18.70;73.40;;;;;;4847949;29;20050;-93
2023/09/13 01:56:12;;;;;;;18.02;9.38;;;18.60;73.40;;;;;;4863365;29;20053;-91
2023/09/13 01:58:39;;;;;;;22.15;9.88;;;18.60;73.50;;;;;;4848318;29;20140;-91
2023/09/13 02:01:06;;;;;;;21.43;10.20;;;18.60;73.50;;;;;;4863231;29;20061;-92
2023/09/13 02:03:34;;;;;;;20.25;9.25;;;18.60;73.80;;;;;;4863235;29;20156;-93
2023/09/13 02:06:01;;;;;;;18.40;10.88;;;18.60;73.70;;;;;;4863721;29;20108;-92
2023/09/13 02:08:28;;;;;;;19.17;9.65;;;18.60;73.60;;;;;;4863758;29;20081;-92
2023/09/13 02:10:55;;;;;;;19.85;10.00;;;18.60;73.70;;;;;;4848136;29;20527;-92
2023/09/13 02:13:22;;;;;;;18.07;9.60;;;18.50;73.80;;;;;;4863774;29;20568;-92
2023/09/13 02:15:49;;;;;;;18.50;10.40;;;18.50;73.60;;;;;;4863656;29;20562;-92
2023/09/13 02:18:17;;;;;;;17.50;9.45;;;18.50;73.60;;;;;;4863426;29;20061;-91
2023/09/13 02:20:44;;;;;;;16.92;9.35;;;18.50;73.80;;;;;;4848142;29;20054;-93
2023/09/13 02:23:11;;;;;;;20.25;9.40;;;18.50;73.60;;;;;;4847849;29;20053;-92
2023/09/13 02:25:48;;;;;;;17.93;9.90;;;18.60;73.70;;;;;;4848034;29;20045;-92
2023/09/13 02:28:15;;;;;;;18.13;9.88;;;18.50;73.70;;;;;;4863323;29;20046;-92
2023/09/13 02:30:45;;;;;;;14.75;9.68;;;18.50;73.50;;;;;;4863100;29;20559;-92
2023/09/13 02:33:12;;;;;;;19.02;9.55;;;18.60;73.50;;;;;;4847875;29;20136;-93
2023/09/13 02:35:39;;;;;;;19.65;10.00;;;18.50;73.60;;;;;;4863012;29;20055;-92
2023/09/13 02:38:06;;;;;;;17.83;9.47;;;18.50;73.70;;;;;;4863248;29;20592;-93
2023/09/13 02:40:33;;;;;;;13.07;8.77;;;18.50;73.70;;;;;;4863009;29;20144;-93
2023/09/13 02:43:00;;;;;;;16.42;9.85;;;18.50;73.50;;;;;;4862829;29;20056;-93
2023/09/13 02:45:29;;;;;;;16.95;10.65;;;18.40;73.70;;;;;;4862884;29;20119;-92
2023/09/13 02:47:56;;;;;;;17.70;9.70;;;18.40;73.60;;;;;;4862829;29;20049;-94
2023/09/13 02:50:23;;;;;;;16.13;10.10;;;18.40;73.90;;;;;;4847456;29;20064;-93
2023/09/13 02:52:54;;;;;;;17.40;9.68;;;18.30;74.00;;;;;;4862220;29;20050;-92
2023/09/13 02:55:21;;;;;;;18.58;8.77;;;18.30;74.00;;;;;;4847155;29;20534;-91
2023/09/13 02:57:49;;;;;;;17.90;10.18;;;18.30;73.80;;;;;;4847505;29;20056;-93
2023/09/13 03:00:16;;;;;;;19.63;10.35;;;18.30;73.90;;;;;;4846932;29;20109;-92
2023/09/13 03:02:44;;;;;;;16.60;10.17;;;18.30;74.20;;;;;;4847478;29;20053;-92
2023/09/13 03:05:11;;;;;;;16.90;9.60;;;18.20;74.20;;;;;;4846940;29;20045;-93
2023/09/13 03:07:38;;;;;;;16.15;10.02;;;18.20;74.30;;;;;;4862516;29;20105;-91
2023/09/13 03:10:06;;;;;;;17.08;9.52;;;18.20;74.40;;;;;;4862318;29;20046;-93
2023/09/13 03:12:33;;;;;;;18.40;10.32;;;18.20;74.30;;;;;;4862110;29;20064;-92
2023/09/13 03:15:03;;;;;;;20.73;10.70;;;18.10;74.40;;;;;;4847007;29;20045;-91
2023/09/13 03:17:30;;;;;;;17.38;9.45;;;18.10;74.60;;;;;;4863346;29;20052;-92
2023/09/13 03:19:57;;;;;;;21.25;10.88;;;18.10;74.60;;;;;;4865060;29;20045;-92
2023/09/13 03:22:24;;;;;;;20.27;9.55;;;18.10;74.50;;;;;;4864969;29;20448;-92
2023/09/13 03:24:52;;;;;;;18.70;9.80;;;18.10;74.50;;;;;;4849986;29;20049;-93
2023/09/13 03:27:20;;;;;;;18.67;9.87;;;18.10;74.40;;;;;;4864842;29;20041;-92
2023/09/13 03:29:47;;;;;;;19.48;10.63;;;18.20;74.30;;;;;;4864772;29;20073;-92
2023/09/13 03:32:14;;;;;;;20.52;9.82;;;18.10;74.40;;;;;;4864976;29;20055;-91
2023/09/13 03:34:43;;;;;;;16.98;9.27;;;18.20;74.20;;;;;;4849639;29;20101;-92
2023/09/13 03:37:10;;;;;;;19.55;9.90;;;18.20;73.90;;;;;;4864844;29;20049;-93
2023/09/13 03:39:38;;;;;;;22.00;9.53;;;18.20;73.90;;;;;;4849626;29;20061;-92
2023/09/13 03:42:05;;;;;;;19.77;9.77;;;18.20;73.90;;;;;;4864105;29;20044;-94
2023/09/13 03:44:32;;;;;;;21.77;10.32;;;18.10;74.00;;;;;;4849413;29;20113;-96
2023/09/13 03:46:59;;;;;;;18.02;9.73;;;18.10;74.10;;;;;;4864471;29;20048;-94
2023/09/13 03:49:27;;;;;;;20.80;10.38;;;18.10;73.90;;;;;;4849281;29;20503;-93
2023/09/13 03:51:54;;;;;;;19.70;10.10;;;18.10;73.90;;;;;;4864639;29;20144;-93
2023/09/13 03:54:22;;;;;;;16.45;9.75;;;18.10;74.10;;;;;;4864263;29;20496;-93
2023/09/13 03:56:50;;;;;;;21.40;10.00;;;18.10;74.10;;;;;;4849412;29;20057;-93
2023/09/13 03:59:17;;;;;;;16.23;8.98;;;18.10;74.00;;;;;;4864301;29;20063;-92
2023/09/13 04:01:44;;;;;;;17.73;10.00;;;18.10;73.80;;;;;;4849252;29;20057;-93
2023/09/13 04:04:12;;;;;;;21.20;9.13;;;18.10;73.70;;;;;;4864260;29;20083;-92
2023/09/13 04:06:39;;;;;;;15.45;9.25;;;18.10;73.90;;;;;;4864655;29;20076;-92
2023/09/13 04:09:06;;;;;;;15.48;9.15;;;18.10;73.90;;;;;;4849622;29;20059;-94
2023/09/13 04:11:33;;;;;;;16.30;9.73;;;18.20;73.80;;;;;;4878048;29;20044;-87
2023/09/13 04:14:01;;;;;;;17.92;9.55;;;18.20;73.90;;;;;;4882813;29;20136;-88
2023/09/13 04:16:28;;;;;;;19.13;9.93;;;18.10;74.00;;;;;;4882513;29;20546;-87
2023/09/13 04:18:55;;;;;;;20.73;9.45;;;18.10;73.90;;;;;;4867234;29;20065;-88
2023/09/13 04:21:22;;;;;;;19.23;9.95;;;18.10;74.00;;;;;;4867409;29;20049;-87
2023/09/13 04:23:49;;;;;;;20.52;9.75;;;18.10;73.90;;;;;;4867175;29;20044;-87
2023/09/13 04:26:21;;;;;;;17.67;10.30;;;18.10;74.00;;;;;;4882581;29;20059;-88
2023/09/13 04:28:49;;;;;;;19.60;9.27;;;18.00;74.00;;;;;;4882398;29;20037;-87
2023/09/13 04:31:16;;;;;;;16.83;9.32;;;18.10;74.00;;;;;;4882603;29;20045;-88
2023/09/13 04:33:48;;;;;;;21.42;9.57;;;18.00;73.90;;;;;;4882438;29;20108;-87
2023/09/13 04:36:17;;;;;;;15.82;10.27;;;18.00;74.10;;;;;;4858596;29;20475;-87
2023/09/13 04:38:46;;;;;;;18.83;9.95;;;18.00;74.10;;;;;;4864040;29;20460;-87
2023/09/13 04:41:15;;;;;;;17.23;9.30;;;18.00;74.30;;;;;;4848645;29;20064;-88
2023/09/13 04:43:43;;;;;;;18.25;9.85;;;18.00;74.20;;;;;;4863873;29;20049;-87
2023/09/13 04:46:11;;;;;;;20.33;9.55;;;18.00;74.40;;;;;;4863627;29;20049;-87
2023/09/13 04:48:39;;;;;;;17.58;9.20;;;18.00;74.30;;;;;;4863862;29;20213;-87
2023/09/13 04:51:06;;;;;;;17.98;9.20;;;18.00;74.40;;;;;;4863602;29;20060;-88
2023/09/13 04:53:33;;;;;;;16.60;9.23;;;18.00;74.10;;;;;;4849041;29;20045;-87
2023/09/13 04:56:01;;;;;;;17.38;9.35;;;18.00;74.10;;;;;;4852406;29;20049;-87
2023/09/13 04:58:32;;;;;;;17.73;9.35;;;18.00;74.00;;;;;;4852779;29;20559;-88
2023/09/13 05:01:03;;;;;;;16.48;8.15;;;18.10;73.90;;;;;;4867541;29;20053;-88
2023/09/13 05:03:30;;;;;;;21.60;9.00;;;18.10;73.90;;;;;;4851919;29;20045;-87
2023/09/13 05:10:01;;;;;;;16.13;8.43;;;18.10;73.80;;;;;;4884486;29;20044;-88
2023/09/13 05:12:29;;;;;;;17.35;8.75;;;18.20;73.50;;;;;;4869363;29;20045;-92
2023/09/13 05:14:56;;;;;;;16.05;9.02;;;18.20;73.50;;;;;;4867184;29;20133;-93
2023/09/13 05:17:23;;;;;;;17.05;8.63;;;18.30;73.30;;;;;;4866920;29;20053;-91
2023/09/13 05:19:50;;;;;;;20.40;9.40;;;18.40;73.10;;;;;;4866998;29;20392;-91
2023/09/13 05:22:17;;;;;;;15.95;8.00;;;18.50;73.00;;;;;;4882946;29;20049;-92
2023/09/13 05:24:44;;;;;;;15.23;8.20;;;18.50;72.90;;;;;;4866930;29;20053;-91
2023/09/13 05:27:11;;;;;;;20.73;8.85;;;18.50;72.50;;;;;;4866868;29;20072;-92
2023/09/13 05:29:39;;;;;;;18.17;9.23;;;18.50;72.50;;;;;;4851975;29;20041;-91
2023/09/13 05:32:06;;;;;;;16.77;9.10;;;18.60;72.10;;;;;;4867155;29;20056;-91
2023/09/13 05:34:33;;;;;;;18.17;8.55;;;18.60;72.20;;;;;;4863797;29;20045;-91
2023/09/13 05:37:00;;;;;;;15.30;9.18;;;18.70;72.50;;;;;;4866675;29;20147;-90
2023/09/13 05:39:27;;;;;;;17.80;8.90;;;18.60;72.10;;;;;;4871654;29;20105;-90
2023/09/13 05:41:55;;;;;;;18.67;8.55;;;18.70;72.40;;;;;;4866832;29;20049;-89
2023/09/13 05:44:24;;;;;;;15.23;8.03;;;18.70;72.10;;;;;;4864164;29;20504;-90
2023/09/13 05:46:52;;;;;;;17.50;8.93;;;18.80;72.00;;;;;;4884228;29;20187;-89
2023/09/13 05:49:20;;;;;;;15.02;8.77;;;18.80;72.00;;;;;;4869936;29;20112;-89
2023/09/13 05:51:47;;;;;;;17.83;8.70;;;19.00;71.80;;;;;;4885044;29;20048;-90
2023/09/13 05:54:14;;;;;;;18.17;8.23;;;19.00;71.70;;;;;;4862696;29;20041;-93
2023/09/13 05:56:44;;;;;;;17.57;8.37;;;19.10;71.60;;;;;;4852366;29;20044;-91
2023/09/13 05:59:11;;;;;;;18.63;9.05;;;19.20;71.50;;;;;;4851480;29;20067;-92
2023/09/13 06:01:39;;;;;;;15.15;8.45;;;19.30;71.20;;;;;;4866745;29;20448;-91
2023/09/13 06:04:07;;;;;;;16.48;8.70;;;19.40;71.00;;;;;;4851210;29;20159;-91
2023/09/13 06:06:53;;;;;;;16.33;8.38;;;19.40;70.40;;;;;;4865710;29;20564;-92
2023/09/13 06:09:22;;;;;;;16.33;7.73;;;19.50;70.50;;;;;;4851372;29;20049;-92
2023/09/13 06:11:49;;;;;;;15.70;8.90;;;19.50;70.70;;;;;;4851193;29;20475;-91
2023/09/13 06:14:18;;;;;;;17.52;8.70;;;19.50;70.70;;;;;;4866417;29;20574;-93
2023/09/13 06:16:45;;;;;;;19.77;8.80;;;19.60;70.30;;;;;;4851267;29;20053;-92
2023/09/13 06:19:13;;;;;;;17.27;8.98;;;19.60;70.60;;;;;;4851588;29;20068;-92
2023/09/13 06:21:40;;;;;;;17.53;8.87;;;19.70;70.50;;;;;;4851320;29;20077;-92
2023/09/13 06:24:07;;;;;;;18.40;8.93;;;19.70;70.50;;;;;;4866420;29;20444;-93
2023/09/13 06:26:34;;;;;;;17.88;8.82;;;19.70;70.60;;;;;;4850866;29;20496;-92
2023/09/13 06:29:02;;;;;;;19.67;8.82;;;19.70;70.30;;;;;;4850801;29;20048;-91
2023/09/13 06:31:29;;;;;;;20.40;9.32;;;19.80;70.70;;;;;;4851203;29;20048;-92
2023/09/13 06:34:01;;;;;;;16.20;9.07;;;19.80;70.90;;;;;;4865956;29;20056;-92
2023/09/13 06:36:31;;;;;;;17.05;8.05;;;19.90;70.70;;;;;;4850994;29;20447;-91
2023/09/13 06:38:59;;;;;;;18.17;8.65;;;19.90;70.90;;;;;;4850622;29;20049;-92
2023/09/13 06:41:27;;;;;;;17.80;8.45;;;19.90;70.70;;;;;;4865841;29;20148;-91
2023/09/13 06:43:54;;;;;;;16.08;8.10;;;19.90;70.80;;;;;;4850524;29;20049;-92
2023/09/13 06:46:36;;;;;;;16.83;8.53;;;20.00;70.80;;;;;;4865568;29;20057;-92
2023/09/13 06:49:04;;;;;;;16.85;7.95;;;20.10;70.60;;;;;;4850309;29;20065;-92
2023/09/13 06:51:34;;;;;;;15.35;8.38;;;20.20;70.40;;;;;;4865830;29;20563;-92
2023/09/13 06:54:18;;;;;;;16.02;8.52;;;20.40;70.10;;;;;;4865521;29;20044;-93
2023/09/13 06:56:49;;;;;;;17.88;8.70;;;20.50;70.10;;;;;;4866046;29;20053;-92
2023/09/13 06:59:20;;;;;;;16.67;8.13;;;20.60;70.10;;;;;;4872583;29;20049;-92
2023/09/13 07:01:51;;;;;;;22.42;7.93;;;20.70;69.70;;;;;;4869288;29;20147;-92
2023/09/13 07:04:20;;;;;;;15.35;8.00;;;20.90;69.40;;;;;;4883999;29;20410;-91
2023/09/13 07:06:57;;;;;;;14.57;7.57;;;21.00;69.30;;;;;;4865397;29;20052;-88
2023/09/13 07:09:25;;;;;;;19.95;8.45;;;21.10;69.10;;;;;;4856455;29;20048;-89
2023/09/13 07:11:52;;;;;;;18.23;8.37;;;21.20;69.60;;;;;;4876557;29;20145;-90
2023/09/13 07:14:19;;;;;;;14.63;8.00;;;21.30;68.90;;;;;;4862748;29;20051;-91
2023/09/13 07:16:46;;;;;;;15.90;7.70;;;21.50;68.90;;;;;;4867707;29;20048;-92
2023/09/13 07:19:13;;;;;;;15.88;7.82;;;21.60;68.10;;;;;;4882944;29;20060;-92
2023/09/13 07:21:41;;;;;;;17.15;7.50;;;21.70;68.10;;;;;;4883976;29;20392;-91
2023/09/13 07:24:09;;;;;;;23.80;8.30;;;21.80;67.50;;;;;;4868402;29;20056;-91
2023/09/13 07:26:36;;;;;;;17.05;7.53;;;21.90;67.10;;;;;;4868108;29;20057;-93
2023/09/13 07:29:04;;;;;;;16.92;8.38;;;22.00;67.00;;;;;;4868135;29;20052;-92
2023/09/13 07:31:31;;;;;;;20.67;8.80;;;22.10;67.00;;;;;;4883074;29;20055;-92
2023/09/13 07:34:02;;;;;;;17.98;7.38;;;22.30;68.10;;;;;;4868115;29;20052;-92
2023/09/13 07:36:30;;;;;;;19.77;8.10;;;22.40;67.10;;;;;;4883182;29;20574;-90
2023/09/13 07:39:00;;;;;;;17.63;7.18;;;22.60;67.10;;;;;;4883113;29;20049;-91
2023/09/13 07:41:27;;;;;;;17.77;8.57;;;22.70;66.10;;;;;;4879957;29;20069;-92
2023/09/13 07:43:54;;;;;;;13.15;7.35;;;22.90;65.90;;;;;;4849191;29;20101;-92
2023/09/13 07:46:22;;;;;;;19.95;6.93;;;23.00;66.10;;;;;;4849098;29;20045;-92
2023/09/13 07:48:49;;;;;;;15.27;7.13;;;23.10;65.60;;;;;;4849311;29;20568;-92
2023/09/13 07:51:16;;;;;;;16.83;7.35;;;23.20;65.10;;;;;;4849302;29;20051;-92
2023/09/13 07:53:44;;;;;;;18.45;7.38;;;23.30;64.10;;;;;;4849531;29;20067;-93
2023/09/13 07:56:11;;;;;;;14.00;6.40;;;23.40;64.20;;;;;;4849484;29;20049;-91
2023/09/13 07:58:39;;;;;;;16.80;7.32;;;23.50;64.10;;;;;;4864332;29;20384;-92
2023/09/13 08:01:06;;;;;;;13.53;7.00;;;23.60;63.50;;;;;;4870166;29;20060;-92
2023/09/13 08:03:33;;;;;;;14.75;6.55;;;23.80;63.30;;;;;;4864415;29;20494;-92
2023/09/13 08:06:03;;;;;;;14.77;6.93;;;23.90;64.20;;;;;;4883266;29;20095;-93
2023/09/13 08:08:33;;;;;;;15.75;6.85;;;23.90;62.30;;;;;;4882126;29;20045;-91
2023/09/13 08:11:00;;;;;;;17.13;6.22;;;24.10;62.80;;;;;;4864160;29;20055;-92
2023/09/13 08:13:27;;;;;;;15.13;6.27;;;24.20;62.10;;;;;;4867376;29;20052;-92
2023/09/13 08:15:55;;;;;;;22.50;6.97;;;24.30;60.90;;;;;;4854166;29;20052;-92
2023/09/13 08:18:24;;;;;;;15.15;5.93;;;24.40;61.30;;;;;;4860146;29;20148;-93
2023/09/13 08:20:51;;;;;;;14.80;6.00;;;24.50;61.20;;;;;;4873483;29;20396;-91
2023/09/13 08:23:18;;;;;;;14.50;5.85;;;24.60;60.90;;;;;;4854966;29;20139;-91
2023/09/13 08:25:46;;;;;;;17.93;6.20;;;24.80;60.60;;;;;;4873653;29;20048;-92
2023/09/13 08:28:13;;;;;;;17.23;5.93;;;24.90;60.50;;;;;;4857665;29;20041;-92
2023/09/13 08:30:44;;;;;;;18.15;6.40;;;25.00;59.50;;;;;;4874734;29;20400;-92
2023/09/13 08:33:12;;;;;;;18.90;6.38;;;25.10;60.10;;;;;;4880796;29;20469;-91
2023/09/13 08:35:39;;;;;;;15.95;5.90;;;25.20;58.50;;;;;;4872903;29;20393;-92
2023/09/13 08:38:06;;;;;;;16.03;5.93;;;25.30;57.30;;;;;;4865570;29;20148;-91
2023/09/13 08:40:40;;;;;;;13.68;5.30;;;25.40;57.60;;;;;;4851744;29;20097;-91
2023/09/13 08:43:10;;;;;;;15.93;5.78;;;25.50;57.40;;;;;;4854221;29;20052;-91
2023/09/13 08:45:38;;;;;;;16.00;5.88;;;25.60;57.40;;;;;;4872342;29;20072;-92
2023/09/13 08:48:07;;;;;;;20.27;6.10;;;25.60;56.70;;;;;;4863579;29;20041;-91
2023/09/13 08:50:36;;;;;;;16.63;6.17;;;25.70;56.70;;;;;;4876004;29;20514;-90
2023/09/13 08:53:05;;;;;;;15.90;5.90;;;25.80;57.10;;;;;;4876519;29;20045;-89
2023/09/13 08:55:33;;;;;;;15.23;6.35;;;25.90;56.10;;;;;;4859010;29;20049;-91
2023/09/13 08:58:11;;;;;;;14.05;5.47;;;25.90;56.60;;;;;;4870084;29;20044;-95
2023/09/13 09:00:41;;;;;;;14.48;6.40;;;26.10;56.50;;;;;;4867655;29;20055;-94
2023/09/13 09:03:12;;;;;;;12.70;6.23;;;26.10;55.40;;;;;;4867194;29;20045;-94
2023/09/13 09:05:44;;;;;;;14.00;6.32;;;26.20;56.60;;;;;;4882413;29;20072;-93
2023/09/13 09:08:11;;;;;;;14.82;6.10;;;26.30;56.20;;;;;;4866943;29;20066;-95
2023/09/13 09:10:41;;;;;;;14.57;6.38;;;26.40;56.30;;;;;;4867234;29;20045;-95
2023/09/13 09:13:11;;;;;;;15.77;6.55;;;26.50;55.50;;;;;;4867115;29;20048;-94
2023/09/13 09:15:40;;;;;;;19.77;6.33;;;26.60;55.80;;;;;;4867711;29;20048;-94
2023/09/13 09:18:12;;;;;;;16.00;6.82;;;26.60;55.70;;;;;;4867181;29;20069;-96
2023/09/13 09:20:39;;;;;;;14.13;6.63;;;26.60;56.30;;;;;;4867159;29;20091;-94
2023/09/13 09:23:07;;;;;;;15.80;6.22;;;26.70;54.10;;;;;;4867306;29;20144;-94
2023/09/13 09:25:38;;;;;;;16.65;7.03;;;26.80;54.50;;;;;;4867323;29;20053;-94
2023/09/13 09:28:05;;;;;;;16.43;6.83;;;26.80;54.70;;;;;;4866821;29;20122;-92
2023/09/13 09:30:33;;;;;;;51.67;9.20;;;26.90;54.70;;;;;;4867058;29;20452;-94
2023/09/13 09:33:03;;;;;;;17.23;6.70;;;27.00;56.00;;;;;;4867334;29;20519;-95
2023/09/13 09:35:31;;;;;;;15.18;7.28;;;27.10;55.10;;;;;;4866733;29;20438;-94
2023/09/13 09:37:58;;;;;;;16.75;7.10;;;27.20;54.60;;;;;;4867241;29;20071;-94
2023/09/13 09:40:26;;;;;;;16.77;7.10;;;27.20;53.20;;;;;;4867036;29;20048;-93
2023/09/13 09:42:57;;;;;;;15.57;7.18;;;27.20;54.20;;;;;;4871042;29;20049;-93
2023/09/13 09:45:24;;;;;;;16.92;7.22;;;27.30;54.40;;;;;;4867087;29;20444;-93
2023/09/13 09:47:52;;;;;;;12.70;6.32;;;27.30;54.60;;;;;;4867678;29;20136;-93
2023/09/13 09:50:20;;;;;;;14.25;7.00;;;27.30;55.10;;;;;;4867252;29;20049;-94
2023/09/13 09:52:51;;;;;;;12.13;6.33;;;27.30;53.90;;;;;;4869936;29;20139;-93
2023/09/13 09:55:23;;;;;;;21.50;7.60;;;27.30;54.10;;;;;;4885179;29;20048;-94
2023/09/13 09:57:52;;;;;;;18.15;7.10;;;27.40;53.30;;;;;;4885158;29;20087;-93
2023/09/13 10:00:19;;;;;;;16.38;7.25;;;27.40;54.00;;;;;;4885303;29;20139;-93
2023/09/13 10:02:47;;;;;;;13.45;7.80;;;27.40;53.40;;;;;;4885002;29;20048;-92
2023/09/13 10:05:17;;;;;;;16.40;7.87;;;27.50;53.90;;;;;;4878365;29;20395;-91
2023/09/13 10:07:51;;;;;;;14.98;7.28;;;27.50;53.90;;;;;;4881409;29;20080;-91
2023/09/13 10:10:35;;;;;;;14.32;7.95;;;27.50;52.70;;;;;;4876942;29;20124;-91
2023/09/13 10:13:06;;;;;;;16.73;7.65;;;27.40;53.40;;;;;;4878248;29;20052;-91
2023/09/13 10:15:33;;;;;;;15.18;8.30;;;27.40;54.10;;;;;;4879584;29;20081;-93
2023/09/13 10:18:01;;;;;;;14.07;7.80;;;27.50;54.00;;;;;;4867082;29;20109;-92
2023/09/13 10:20:30;;;;;;;14.35;8.30;;;27.50;54.00;;;;;;4864833;29;20059;-92
2023/09/13 10:23:01;;;;;;;13.88;8.18;;;27.60;53.60;;;;;;4877632;29;20538;-92
2023/09/13 10:25:32;;;;;;;16.80;8.23;;;27.60;53.70;;;;;;4870906;29;20053;-92
2023/09/13 10:28:01;;;;;;;14.95;8.05;;;27.70;54.10;;;;;;4875248;29;20040;-92
2023/09/13 10:30:31;;;;;;;15.43;8.67;;;27.80;55.20;;;;;;4868450;29;20044;-92
2023/09/13 10:33:03;;;;;;;12.90;7.90;;;27.90;55.80;;;;;;4883140;29;20049;-92
2023/09/13 10:35:33;;;;;;;14.10;8.20;;;27.90;54.10;;;;;;4870058;29;20056;-92
2023/09/13 10:38:13;;;;;;;17.05;7.60;;;28.00;53.30;;;;;;4867044;29;20041;-92
2023/09/13 10:41:03;;;;;;;13.52;7.65;;;27.90;53.40;;;;;;4862953;29;20052;-93
2023/09/13 10:43:32;;;;;;;13.00;7.80;;;28.10;54.40;;;;;;4855399;29;20081;-91
2023/09/13 10:46:02;;;;;;;13.73;7.90;;;28.10;52.50;;;;;;4864244;29;20131;-90
2023/09/13 10:48:30;;;;;;;14.45;8.00;;;28.10;52.40;;;;;;4875383;29;20151;-91
2023/09/13 10:51:00;;;;;;;15.27;8.27;;;28.10;52.80;;;;;;4882284;29;20053;-91
2023/09/13 10:53:27;;;;;;;14.55;8.02;;;28.20;53.50;;;;;;4881941;29;20132;-92
2023/09/13 10:55:54;;;;;;;14.33;7.90;;;28.20;52.60;;;;;;4879569;29;20045;-91
2023/09/13 10:58:23;;;;;;;14.27;8.02;;;28.20;52.10;;;;;;4862503;29;20052;-92
2023/09/13 11:00:53;;;;;;;12.90;7.28;;;28.30;53.00;;;;;;4877078;29;20049;-93
2023/09/13 11:03:21;;;;;;;17.90;7.88;;;28.30;52.00;;;;;;4869511;29;20056;-94
2023/09/13 11:05:52;;;;;;;13.90;7.93;;;28.30;53.00;;;;;;4885861;29;20419;-92
2023/09/13 11:08:30;;;;;;;14.10;7.70;;;28.50;52.20;;;;;;4866677;29;20677;-92
2023/09/13 11:11:16;;;;;;;12.70;8.15;;;28.60;51.30;;;;;;4868962;29;20055;-93
2023/09/13 11:13:52;;;;;;;13.27;8.10;;;28.60;51.80;;;;;;4867837;29;20093;-88
2023/09/13 11:16:22;;;;;;;14.50;7.50;;;28.70;51.20;;;;;;4873350;29;20064;-90
2023/09/13 11:18:51;;;;;;;13.00;7.65;;;28.80;51.50;;;;;;4872646;29;20549;-89
2023/09/13 11:21:44;;;;;;;15.60;7.63;;;28.70;51.00;;;;;;4877613;29;20060;-89
2023/09/13 11:24:12;;;;;;;15.00;7.72;;;28.80;51.30;;;;;;4853527;29;20141;-88
2023/09/13 11:27:08;;;;;;;23.33;9.05;;;28.80;51.10;;;;;;4878283;29;20128;-88
2023/09/13 11:29:44;;;;;;;13.45;7.85;;;28.90;51.30;;;;;;4878918;29;20440;-89
2023/09/13 11:32:21;;;;;;;13.02;7.63;;;28.90;49.80;;;;;;4885496;29;20071;-89
2023/09/13 11:34:57;;;;;;;14.47;7.47;;;29.00;50.20;;;;;;4883326;29;20041;-93
2023/09/13 11:37:26;;;;;;;13.40;7.57;;;28.90;49.50;;;;;;4898529;29;20048;-92
2023/09/13 11:40:09;;;;;;;13.05;7.60;;;29.00;49.50;;;;;;4868787;29;20052;-93
2023/09/13 11:42:40;;;;;;;13.27;7.05;;;29.00;49.40;;;;;;4878559;29;20093;-94
2023/09/13 11:45:31;;;;;;;16.48;7.82;;;29.00;51.00;;;;;;4871792;29;20180;-92
2023/09/13 11:48:04;;;;;;;14.73;7.80;;;29.00;49.20;;;;;;4862832;29;20132;-94
2023/09/13 11:50:48;;;;;;;13.00;7.57;;;29.00;51.60;;;;;;4877684;29;20052;-93
2023/09/13 11:53:23;;;;;;;14.80;7.68;;;28.90;50.00;;;;;;4858331;29;20135;-92
2023/09/13 11:55:56;;;;;;;12.90;7.60;;;28.90;50.60;;;;;;4877045;29;20068;-93
2023/09/13 11:58:46;;;;;;;11.35;7.07;;;29.00;50.60;;;;;;4860105;29;20066;-92
2023/09/13 12:01:25;;;;;;;11.13;7.40;;;28.90;49.90;;;;;;4876875;29;20104;-92
2023/09/13 12:03:57;;;;;;;12.55;6.97;;;28.80;49.20;;;;;;4877295;29;20060;-92
2023/09/13 12:06:27;;;;;;;12.90;7.88;;;28.70;50.20;;;;;;4873529;29;20045;-92
2023/09/13 12:09:10;;;;;;;11.68;7.20;;;28.70;51.00;;;;;;4855028;29;20049;-92
2023/09/13 12:11:41;;;;;;;12.77;7.57;;;28.70;49.80;;;;;;4891715;29;20049;-91
2023/09/13 12:14:11;;;;;;;10.83;6.63;;;28.60;50.10;;;;;;4867662;29;20036;-91
2023/09/13 12:16:52;;;;;;;11.75;7.82;;;28.60;51.70;;;;;;4882925;29;20139;-89
2023/09/13 12:19:19;;;;;;;12.77;7.30;;;28.60;52.00;;;;;;4861458;29;20058;-90
2023/09/13 12:21:47;;;;;;;12.65;7.07;;;28.50;52.80;;;;;;4859367;29;20078;-89
2023/09/13 12:24:24;;;;;;;13.15;7.22;;;28.50;52.50;;;;;;4830539;29;20050;-90
2023/09/13 12:26:52;;;;;;;12.63;7.30;;;28.50;52.70;;;;;;4854576;29;20478;-95
2023/09/13 12:29:41;;;;;;;;;;;;;;;;;;;;;
2023/09/13 12:33:49;;;;;;;13.98;7.40;;;28.50;52.20;;;;;;4818016;29;20157;-93
2023/09/13 12:36:17;;;;;;;12.35;6.80;;;28.30;50.30;;;;;;4837915;29;20049;-92
2023/09/13 12:38:44;;;;;;;10.20;6.32;;;28.30;51.50;;;;;;4857200;29;20062;-94
2023/09/13 12:41:17;;;;;;;10.63;6.80;;;28.30;50.80;;;;;;4858645;29;20385;-93
2023/09/13 12:43:50;;;;;;;11.77;7.00;;;28.30;51.70;;;;;;4858501;29;20054;-93
2023/09/13 12:46:22;;;;;;;11.90;6.57;;;28.40;51.90;;;;;;4843835;29;20058;-92
2023/09/13 12:48:53;;;;;;;12.23;7.07;;;28.50;52.10;;;;;;4856538;29;20046;-92
2023/09/13 12:51:25;;;;;;;12.98;7.78;;;28.70;50.70;;;;;;4852530;29;20094;-93
2023/09/13 12:53:53;;;;;;;14.17;6.70;;;28.70;51.10;;;;;;4862255;29;20523;-89